createdAt,value
2019-05-09T00:00:49.780Z,1.4
2019-05-09T00:02:49.857Z,1.4
2019-05-09T00:04:50.341Z,1.4
2019-05-09T00:06:49.506Z,1.4
2019-05-09T00:08:50.424Z,1.5
2019-05-09T00:10:50.449Z,1.5
2019-05-09T00:12:50.260Z,1.3
2019-05-09T00:14:50.275Z,1.3
2019-05-09T00:16:50.321Z,1.2
2019-05-09T00:18:50.413Z,1.5
2019-05-09T00:20:50.468Z,1.5
2019-05-09T00:22:50.461Z,1.5
2019-05-09T00:24:50.429Z,1.4
2019-05-09T00:26:49.579Z,1.6
2019-05-09T00:28:49.667Z,1.6
2019-05-09T00:30:49.599Z,1.5
2019-05-09T00:32:49.673Z,1.3
2019-05-09T00:34:49.982Z,1.3
2019-05-09T00:36:50.121Z,1.3
2019-05-09T00:38:50.140Z,1.3
2019-05-09T00:40:58.905Z,1.4
2019-05-09T00:42:50.234Z,1.4
2019-05-09T00:44:50.247Z,1.3
2019-05-09T00:46:50.478Z,1.4
2019-05-09T00:48:49.563Z,1.4
2019-05-09T00:50:50.486Z,1.2
2019-05-09T00:52:49.541Z,1.4
2019-05-09T00:54:50.494Z,1.4
2019-05-09T00:56:50.257Z,1.4
2019-05-09T00:58:50.314Z,1.4
2019-05-09T01:00:50.371Z,1.4
2019-05-09T01:02:50.433Z,1.3
2019-05-09T01:04:49.766Z,1.3
2019-05-09T01:06:49.935Z,1.6
2019-05-09T01:08:49.981Z,1.6
2019-05-09T01:10:50.086Z,1.5
2019-05-09T01:12:50.226Z,1.5
2019-05-09T01:14:50.397Z,1.5
2019-05-09T01:16:49.542Z,1.3
2019-05-09T01:18:49.673Z,1.3
2019-05-09T01:20:49.900Z,1.5
2019-05-09T01:22:50.047Z,1.5
2019-05-09T01:24:50.104Z,1.5
2019-05-09T01:26:50.376Z,1.5
2019-05-09T01:28:49.530Z,1.8
2019-05-09T01:30:49.676Z,1.6
2019-05-09T01:32:49.839Z,1.4
2019-05-09T01:34:50.272Z,1.5
2019-05-09T01:36:49.530Z,1.5
2019-05-09T01:38:49.543Z,1.5
2019-05-09T01:40:49.533Z,1.6
2019-05-09T01:42:49.627Z,1.6
2019-05-09T01:44:49.659Z,1.5
2019-05-09T01:46:49.839Z,1.5
2019-05-09T01:48:49.918Z,1.5
2019-05-09T01:50:50.009Z,1.5
2019-05-09T01:52:50.025Z,1.4
2019-05-09T01:54:50.055Z,1.5
2019-05-09T01:56:50.212Z,1.5
2019-05-09T01:58:50.227Z,1.4
2019-05-09T02:00:50.259Z,1.4
2019-05-09T02:02:50.302Z,1.4
2019-05-09T02:04:49.614Z,1.5
2019-05-09T02:06:49.817Z,1.5
2019-05-09T02:08:50.045Z,1.6
2019-05-09T02:10:50.061Z,1.6
2019-05-09T02:12:50.031Z,1.3
2019-05-09T02:14:50.099Z,1.5
2019-05-09T02:16:50.251Z,1.5
2019-05-09T02:18:50.322Z,1.5
2019-05-09T02:20:50.371Z,1.7
2019-05-09T02:22:50.353Z,1.7
2019-05-09T02:24:50.325Z,1.8
2019-05-09T02:26:49.617Z,1.7
2019-05-09T02:28:49.620Z,1.7
2019-05-09T02:30:49.786Z,1.7
2019-05-09T02:32:49.903Z,1.8
2019-05-09T02:34:50.340Z,1.9
2019-05-09T02:36:50.473Z,1.9
2019-05-09T02:38:49.593Z,1.7
2019-05-09T02:40:49.804Z,2.5
2019-05-09T02:42:49.863Z,1.9
2019-05-09T02:44:49.982Z,2.1
2019-05-09T02:46:50.107Z,2.1
2019-05-09T02:48:50.103Z,1.9
2019-05-09T02:50:50.214Z,1.6
2019-05-09T02:52:50.232Z,1.6
2019-05-09T02:54:50.469Z,1.9
2019-05-09T02:56:49.681Z,2.0
2019-05-09T02:58:49.633Z,1.9
2019-05-09T03:00:49.636Z,2.0
2019-05-09T03:02:49.762Z,1.9
2019-05-09T03:04:50.144Z,1.7
2019-05-09T03:06:50.264Z,1.7
2019-05-09T03:08:50.269Z,1.9
2019-05-09T03:10:50.286Z,1.6
2019-05-09T03:12:50.813Z,1.8
2019-05-09T03:14:49.889Z,1.8
2019-05-09T03:16:50.032Z,2.0
2019-05-09T03:18:49.967Z,1.8
2019-05-09T03:20:49.956Z,1.8
2019-05-09T03:22:49.785Z,1.7
2019-05-09T03:24:49.839Z,1.7
2019-05-09T03:26:50.109Z,1.9
2019-05-09T03:28:50.131Z,1.8
2019-05-09T03:30:50.534Z,1.6
2019-05-09T03:32:49.657Z,1.6
2019-05-09T03:34:50.044Z,1.6
2019-05-09T03:36:50.188Z,1.8
2019-05-09T03:38:50.257Z,1.6
2019-05-09T03:40:50.260Z,1.6
2019-05-09T03:42:50.223Z,1.6
2019-05-09T03:44:50.211Z,1.8
2019-05-09T03:46:50.445Z,1.5
2019-05-09T03:48:49.770Z,1.5
2019-05-09T03:50:49.847Z,1.5
2019-05-09T03:52:49.834Z,1.5
2019-05-09T03:54:49.964Z,3.0
2019-05-09T03:56:50.211Z,2.2
2019-05-09T03:58:50.203Z,1.6
2019-05-09T04:00:50.317Z,1.8
2019-05-09T04:02:50.383Z,1.8
2019-05-09T04:04:49.719Z,1.7
2019-05-09T04:06:49.873Z,1.7
2019-05-09T04:08:50.005Z,1.8
2019-05-09T04:10:50.582Z,2.0
2019-05-09T04:12:59.014Z,2.0
2019-05-09T04:14:49.697Z,2.0
2019-05-09T04:16:49.846Z,2.2
2019-05-09T04:18:49.863Z,2.5
2019-05-09T04:20:49.872Z,2.5
2019-05-09T04:22:49.914Z,2.2
2019-05-09T04:24:49.894Z,2.5
2019-05-09T04:26:50.461Z,2.5
2019-05-09T04:28:50.429Z,2.7
2019-05-09T04:30:50.399Z,2.6
2019-05-09T04:32:50.435Z,2.6
2019-05-09T04:34:49.795Z,2.6
2019-05-09T04:36:49.958Z,2.8
2019-05-09T04:38:49.957Z,2.5
2019-05-09T04:40:49.914Z,3.1
2019-05-09T04:42:49.939Z,3.1
2019-05-09T04:44:58.763Z,3.1
2019-05-09T04:46:58.961Z,3.2
2019-05-09T04:48:58.670Z,2.9
2019-05-09T04:50:49.865Z,2.9
2019-05-09T04:52:49.907Z,3.1
2019-05-09T04:54:49.904Z,3.1
2019-05-09T04:56:51.940Z,3.1
2019-05-09T04:58:49.995Z,3.0
2019-05-09T05:00:50.008Z,3.0
2019-05-09T05:02:50.041Z,3.0
2019-05-09T05:04:50.314Z,3.1
2019-05-09T05:06:49.545Z,3.0
2019-05-09T05:08:49.635Z,3.0
2019-05-09T05:10:49.713Z,2.6
2019-05-09T05:12:49.679Z,2.6
2019-05-09T05:14:49.694Z,2.9
2019-05-09T05:16:55.177Z,2.9
2019-05-09T05:18:50.129Z,2.9
2019-05-09T05:20:50.160Z,2.8
2019-05-09T05:22:50.166Z,2.9
2019-05-09T05:24:50.200Z,2.9
2019-05-09T05:26:50.300Z,3.0
2019-05-09T05:28:50.410Z,3.0
2019-05-09T05:30:50.471Z,2.9
2019-05-09T05:32:49.545Z,2.9
2019-05-09T05:34:49.868Z,3.4
2019-05-09T05:36:49.691Z,3.2
2019-05-09T05:38:49.772Z,3.2
2019-05-09T05:40:50.091Z,3.1
2019-05-09T05:42:50.174Z,3.2
2019-05-09T05:44:50.217Z,3.2
2019-05-09T05:46:51.094Z,3.4
2019-05-09T05:48:50.141Z,3.4
2019-05-09T05:50:50.155Z,4.1
2019-05-09T05:52:50.227Z,3.4
2019-05-09T05:54:50.241Z,3.5
2019-05-09T05:56:50.434Z,3.5
2019-05-09T05:58:49.601Z,3.6
2019-05-09T06:00:49.610Z,3.0
2019-05-09T06:02:49.596Z,3.4
2019-05-09T06:04:50.169Z,3.3
2019-05-09T06:06:50.358Z,3.3
2019-05-09T06:08:50.427Z,2.9
2019-05-09T06:10:50.366Z,3.1
2019-05-09T06:12:50.432Z,2.9
2019-05-09T06:14:50.452Z,2.9
2019-05-09T06:16:49.677Z,3.0
2019-05-09T06:18:49.715Z,3.3
2019-05-09T06:20:49.639Z,2.9
2019-05-09T06:22:49.720Z,2.9
2019-05-09T06:24:49.730Z,2.8
2019-05-09T06:26:49.971Z,3.4
2019-05-09T06:28:49.907Z,3.4
2019-05-09T06:30:49.847Z,2.7
2019-05-09T06:32:49.911Z,2.7
2019-05-09T06:34:50.147Z,2.8
2019-05-09T06:36:50.441Z,2.8
2019-05-09T06:38:50.488Z,2.8
2019-05-09T06:40:49.581Z,2.6
2019-05-09T06:42:49.701Z,2.6
2019-05-09T06:44:49.775Z,2.6
2019-05-09T06:46:49.882Z,2.6
2019-05-09T06:48:49.896Z,2.6
2019-05-09T06:50:50.002Z,2.2
2019-05-09T06:52:50.001Z,2.2
2019-05-09T06:54:50.023Z,2.2
2019-05-09T06:56:50.145Z,2.2
2019-05-09T06:58:50.187Z,2.2
2019-05-09T07:00:50.164Z,2.6
2019-05-09T07:02:50.164Z,2.2
2019-05-09T07:04:50.467Z,2.3
2019-05-09T07:06:49.576Z,2.3
2019-05-09T07:08:49.559Z,2.3
2019-05-09T07:10:49.526Z,2.1
2019-05-09T07:12:49.606Z,2.1
2019-05-09T07:14:49.550Z,2.1
2019-05-09T07:16:49.725Z,2.1
2019-05-09T07:18:49.754Z,2.1
2019-05-09T07:20:49.839Z,2.2
2019-05-09T07:22:49.936Z,2.1
2019-05-09T07:24:50.025Z,2.1
2019-05-09T07:26:50.345Z,2.0
2019-05-09T07:28:50.515Z,2.1
2019-05-09T07:30:49.576Z,2.2
2019-05-09T07:32:49.649Z,2.2
2019-05-09T07:34:50.047Z,2.6
2019-05-09T07:36:50.106Z,2.0
2019-05-09T07:38:50.259Z,2.1
2019-05-09T07:40:50.256Z,1.6
2019-05-09T07:42:50.332Z,1.6
2019-05-09T07:44:52.653Z,1.9
2019-05-09T07:46:49.917Z,1.8
2019-05-09T07:48:49.927Z,1.6
2019-05-09T07:50:49.862Z,2.0
2019-05-09T07:52:49.833Z,2.0
2019-05-09T07:54:49.887Z,2.0
2019-05-09T07:56:50.101Z,1.7
2019-05-09T07:58:50.138Z,1.7
2019-05-09T08:00:50.069Z,1.8
2019-05-09T08:02:50.100Z,1.8
2019-05-09T08:04:49.532Z,1.8
2019-05-09T08:06:49.739Z,1.6
2019-05-09T08:08:49.877Z,1.5
2019-05-09T08:10:49.847Z,1.7
2019-05-09T08:12:49.896Z,1.7
2019-05-09T08:15:08.352Z,1.7
2019-05-09T08:16:50.051Z,1.5
2019-05-09T08:18:50.168Z,1.7
2019-05-09T08:20:50.174Z,1.7
2019-05-09T08:23:01.544Z,1.6
2019-05-09T08:24:50.167Z,1.7
2019-05-09T08:26:50.391Z,1.8
2019-05-09T08:28:50.488Z,1.7
2019-05-09T08:30:50.525Z,1.7
2019-05-09T08:32:49.580Z,1.6
2019-05-09T08:34:50.098Z,1.3
2019-05-09T08:36:50.197Z,1.5
2019-05-09T08:38:50.233Z,1.3
2019-05-09T08:40:50.197Z,1.3
2019-05-09T08:42:50.275Z,1.2
2019-05-09T08:44:50.199Z,1.4
2019-05-09T08:46:50.345Z,1.2
2019-05-09T08:48:50.322Z,1.7
2019-05-09T08:50:50.320Z,1.7
2019-05-09T08:52:50.318Z,1.6
2019-05-09T08:54:50.436Z,1.5
2019-05-09T08:56:50.521Z,1.3
2019-05-09T08:58:49.567Z,3.2
2019-05-09T09:00:49.633Z,3.2
2019-05-09T09:02:49.618Z,1.6
2019-05-09T09:04:49.971Z,1.8
2019-05-09T09:06:50.154Z,1.2
2019-05-09T09:08:50.222Z,1.2
2019-05-09T09:10:50.238Z,1.5
2019-05-09T09:12:50.247Z,1.3
2019-05-09T09:14:50.378Z,1.3
2019-05-09T09:16:49.571Z,1.3
2019-05-09T09:18:49.806Z,1.6
2019-05-09T09:20:49.922Z,1.5
2019-05-09T09:22:49.962Z,1.3
2019-05-09T09:24:49.977Z,1.5
2019-05-09T09:26:50.044Z,1.7
2019-05-09T09:28:50.025Z,1.7
2019-05-09T09:30:50.092Z,1.7
2019-05-09T09:32:50.103Z,1.6
2019-05-09T09:34:50.473Z,1.6
2019-05-09T09:36:49.672Z,2.0
2019-05-09T09:38:49.648Z,2.0
2019-05-09T09:40:49.652Z,1.7
2019-05-09T09:42:49.592Z,1.6
2019-05-09T09:44:49.711Z,1.8
2019-05-09T09:46:49.875Z,2.3
2019-05-09T09:48:49.858Z,2.3
2019-05-09T09:50:51.975Z,1.9
2019-05-09T09:52:50.037Z,2.0
2019-05-09T09:54:50.063Z,2.0
2019-05-09T09:56:50.184Z,1.7
2019-05-09T09:58:50.211Z,1.7
2019-05-09T10:00:50.226Z,1.6
2019-05-09T10:02:50.094Z,1.9
2019-05-09T10:04:50.458Z,1.7
2019-05-09T10:06:53.297Z,1.6
2019-05-09T10:08:50.493Z,1.6
2019-05-09T10:10:50.435Z,1.6
2019-05-09T10:12:49.615Z,1.4
2019-05-09T10:14:49.675Z,1.4
2019-05-09T10:16:49.803Z,1.5
2019-05-09T10:18:49.866Z,1.5
2019-05-09T10:20:49.879Z,1.5
2019-05-09T10:23:10.344Z,1.3
2019-05-09T10:24:50.427Z,1.3
2019-05-09T10:26:49.551Z,1.3
2019-05-09T10:28:49.577Z,1.4
2019-05-09T10:30:49.583Z,1.4
2019-05-09T10:32:49.617Z,1.3
2019-05-09T10:34:49.937Z,1.1
2019-05-09T10:36:49.942Z,1.1
2019-05-09T10:38:49.952Z,1.3
2019-05-09T10:40:53.635Z,1.3
2019-05-09T10:42:49.635Z,1.4
2019-05-09T10:44:49.705Z,1.3
2019-05-09T10:47:01.566Z,1.3
2019-05-09T10:48:49.550Z,2.0
2019-05-09T10:50:54.870Z,1.4
2019-05-09T10:52:49.959Z,2.0
2019-05-09T10:54:49.976Z,1.5
2019-05-09T10:56:50.149Z,1.5
2019-05-09T10:58:50.190Z,1.8
2019-05-09T11:00:50.151Z,2.5
2019-05-09T11:02:50.250Z,2.0
2019-05-09T11:04:49.583Z,2.0
2019-05-09T11:06:49.836Z,1.4
2019-05-09T11:08:49.876Z,1.4
2019-05-09T11:10:50.002Z,1.4
2019-05-09T11:12:50.100Z,1.5
2019-05-09T11:14:50.089Z,1.5
2019-05-09T11:17:09.907Z,1.7
2019-05-09T11:18:49.631Z,1.2
2019-05-09T11:20:49.626Z,1.6
2019-05-09T11:22:49.632Z,1.4
2019-05-09T11:24:51.563Z,1.4
2019-05-09T11:26:49.964Z,1.4
2019-05-09T11:28:50.059Z,1.7
2019-05-09T11:30:50.118Z,1.4
2019-05-09T11:32:50.127Z,1.4
2019-05-09T11:34:50.375Z,1.4
2019-05-09T11:36:50.171Z,1.2
2019-05-09T11:38:50.199Z,1.3
2019-05-09T11:40:50.297Z,1.4
2019-05-09T11:42:50.405Z,1.4
2019-05-09T11:44:50.098Z,1.2
2019-05-09T11:46:50.272Z,1.5
2019-05-09T11:48:50.203Z,1.2
2019-05-09T11:50:50.260Z,1.2
2019-05-09T11:52:50.255Z,1.7
2019-05-09T11:54:50.330Z,1.3
2019-05-09T11:56:50.387Z,1.4
2019-05-09T11:58:50.289Z,1.4
2019-05-09T12:00:50.324Z,1.6
2019-05-09T12:02:50.313Z,1.6
2019-05-09T12:04:49.773Z,1.4
2019-05-09T12:06:49.881Z,1.1
2019-05-09T12:08:49.845Z,0.9
2019-05-09T12:10:49.867Z,1.1
2019-05-09T12:12:49.810Z,1.1
2019-05-09T12:14:49.822Z,0.9
2019-05-09T12:16:49.934Z,1.2
2019-05-09T12:18:50.078Z,0.9
2019-05-09T12:20:50.087Z,1.1
2019-05-09T12:22:50.101Z,1.1
2019-05-09T12:24:54.234Z,1.2
2019-05-09T12:26:49.670Z,1.1
2019-05-09T12:28:49.734Z,1.2
2019-05-09T12:30:49.703Z,1.7
2019-05-09T12:32:49.729Z,1.7
2019-05-09T12:34:50.015Z,1.5
2019-05-09T12:36:50.424Z,1.5
2019-05-09T12:38:50.536Z,1.8
2019-05-09T12:40:49.592Z,1.8
2019-05-09T12:42:50.549Z,1.7
2019-05-09T12:44:49.890Z,2.0
2019-05-09T12:46:49.984Z,2.1
2019-05-09T12:48:49.974Z,2.1
2019-05-09T12:50:49.987Z,1.9
2019-05-09T12:52:49.993Z,1.9
2019-05-09T12:54:49.984Z,2.0
2019-05-09T12:56:50.083Z,1.9
2019-05-09T12:58:50.114Z,2.0
2019-05-09T13:00:52.149Z,2.3
2019-05-09T13:02:50.192Z,2.3
2019-05-09T13:04:49.612Z,2.2
2019-05-09T13:06:49.697Z,2.1
2019-05-09T13:08:49.700Z,2.1
2019-05-09T13:10:49.655Z,2.1
2019-05-09T13:12:49.695Z,2.2
2019-05-09T13:14:49.738Z,2.1
2019-05-09T13:16:53.919Z,2.0
2019-05-09T13:18:50.101Z,2.0
2019-05-09T13:20:50.001Z,1.9
2019-05-09T13:22:50.134Z,1.6
2019-05-09T13:24:50.172Z,2.4
2019-05-09T13:26:50.509Z,3.2
2019-05-09T13:28:50.515Z,1.8
2019-05-09T13:30:49.606Z,1.8
2019-05-09T13:32:49.619Z,2.4
2019-05-09T13:34:49.934Z,2.1
2019-05-09T13:36:50.142Z,2.1
2019-05-09T13:39:04.563Z,2.2
2019-05-09T13:40:54.045Z,2.1
2019-05-09T13:42:50.233Z,2.4
2019-05-09T13:44:50.303Z,2.1
2019-05-09T13:46:50.530Z,1.8
2019-05-09T13:49:10.572Z,1.8
2019-05-09T13:50:50.455Z,1.6
2019-05-09T13:52:50.501Z,1.9
2019-05-09T13:54:50.510Z,1.9
2019-05-09T13:56:58.605Z,1.8
2019-05-09T13:58:49.644Z,8.0
2019-05-09T14:01:02.504Z,3.5
2019-05-09T14:02:49.568Z,1.9
2019-05-09T14:04:50.136Z,1.5
2019-05-09T14:06:50.310Z,1.2
2019-05-09T14:08:50.334Z,1.2
2019-05-09T14:10:50.386Z,1.3
2019-05-09T14:13:06.434Z,1.6
2019-05-09T14:14:49.866Z,1.5
2019-05-09T14:16:49.948Z,1.5
2019-05-09T14:18:50.064Z,1.5
2019-05-09T14:20:50.291Z,1.2
2019-05-09T14:22:50.494Z,1.4
2019-05-09T14:24:50.535Z,1.4
2019-05-09T14:26:49.664Z,2.6
2019-05-09T14:28:49.657Z,2.6
2019-05-09T14:30:49.740Z,1.5
2019-05-09T14:32:50.276Z,1.2
2019-05-09T14:34:49.621Z,1.5
2019-05-09T14:36:49.926Z,1.5
2019-05-09T14:38:49.976Z,1.5
2019-05-09T14:40:49.984Z,1.7
2019-05-09T14:42:49.984Z,1.5
2019-05-09T14:44:49.970Z,1.5
2019-05-09T14:46:50.014Z,1.8
2019-05-09T14:48:50.107Z,1.7
2019-05-09T14:50:50.119Z,1.8
2019-05-09T14:52:50.760Z,1.8
2019-05-09T14:54:49.801Z,1.3
2019-05-09T14:56:49.962Z,1.3
2019-05-09T14:58:49.974Z,1.1
2019-05-09T15:00:50.097Z,1.3
2019-05-09T15:02:50.285Z,1.3
2019-05-09T15:04:50.486Z,1.6
2019-05-09T15:06:49.705Z,1.6
2019-05-09T15:08:49.697Z,1.5
2019-05-09T15:10:49.723Z,1.2
2019-05-09T15:12:49.856Z,1.3
2019-05-09T15:14:49.819Z,1.4
2019-05-09T15:16:49.952Z,1.4
2019-05-09T15:18:49.969Z,1.3
2019-05-09T15:20:50.049Z,1.3
2019-05-09T15:22:50.125Z,2.1
2019-05-09T15:24:50.123Z,1.9
2019-05-09T15:26:50.240Z,1.9
2019-05-09T15:28:50.213Z,1.5
2019-05-09T15:30:50.198Z,1.5
2019-05-09T15:32:52.291Z,1.5
2019-05-09T15:34:49.627Z,1.5
2019-05-09T15:36:49.798Z,1.5
2019-05-09T15:38:49.869Z,1.5
2019-05-09T15:40:49.815Z,2.0
2019-05-09T15:42:49.824Z,1.4
2019-05-09T15:44:49.863Z,1.4
2019-05-09T15:46:49.945Z,1.6
2019-05-09T15:48:49.923Z,1.6
2019-05-09T15:50:50.048Z,1.7
2019-05-09T15:52:50.101Z,1.7
2019-05-09T15:54:50.259Z,1.5
2019-05-09T15:56:50.465Z,1.5
2019-05-09T15:58:49.671Z,1.5
2019-05-09T16:00:49.673Z,1.9
2019-05-09T16:02:49.799Z,1.9
2019-05-09T16:04:50.206Z,1.7
2019-05-09T16:06:52.430Z,1.5
2019-05-09T16:08:49.856Z,1.5
2019-05-09T16:10:49.941Z,1.4
2019-05-09T16:12:49.972Z,1.4
2019-05-09T16:14:50.001Z,1.3
2019-05-09T16:16:50.119Z,1.4
2019-05-09T16:18:50.216Z,1.5
2019-05-09T16:20:50.296Z,1.3
2019-05-09T16:22:50.296Z,1.3
2019-05-09T16:24:50.313Z,1.3
2019-05-09T16:26:49.669Z,1.3
2019-05-09T16:28:49.836Z,1.6
2019-05-09T16:30:49.871Z,1.6
2019-05-09T16:32:49.892Z,1.5
2019-05-09T16:34:50.241Z,1.6
2019-05-09T16:36:50.252Z,1.5
2019-05-09T16:38:50.375Z,1.5
2019-05-09T16:40:50.412Z,1.6
2019-05-09T16:42:50.422Z,1.6
2019-05-09T16:44:50.357Z,1.4
2019-05-09T16:46:49.560Z,1.6
2019-05-09T16:48:49.600Z,1.6
2019-05-09T16:51:01.152Z,1.5
2019-05-09T16:52:49.729Z,1.5
2019-05-09T16:54:50.365Z,1.6
2019-05-09T16:56:50.402Z,1.5
2019-05-09T16:58:50.456Z,1.4
2019-05-09T17:00:50.486Z,1.4
2019-05-09T17:02:50.462Z,1.4
2019-05-09T17:04:49.920Z,1.5
2019-05-09T17:06:50.158Z,1.4
2019-05-09T17:08:50.127Z,1.4
2019-05-09T17:10:50.128Z,1.5
2019-05-09T17:12:50.168Z,1.8
2019-05-09T17:14:50.217Z,1.5
2019-05-09T17:16:53.198Z,1.5
2019-05-09T17:18:50.262Z,1.4
2019-05-09T17:20:50.253Z,1.4
2019-05-09T17:22:50.219Z,1.3
2019-05-09T17:24:50.352Z,1.5
2019-05-09T17:26:50.392Z,1.4
2019-05-09T17:28:50.381Z,1.4
2019-05-09T17:30:50.435Z,1.4
2019-05-09T17:32:50.306Z,1.4
2019-05-09T17:34:49.740Z,1.4
2019-05-09T17:36:49.868Z,1.4
2019-05-09T17:38:49.909Z,1.4
2019-05-09T17:40:49.922Z,1.4
2019-05-09T17:42:49.887Z,1.3
2019-05-09T17:44:49.843Z,1.3
2019-05-09T17:46:49.958Z,1.3
2019-05-09T17:48:49.977Z,1.4
2019-05-09T17:50:49.967Z,1.4
2019-05-09T17:52:50.044Z,1.2
2019-05-09T17:54:50.028Z,1.4
2019-05-09T17:56:50.310Z,1.4
2019-05-09T17:58:50.354Z,1.4
2019-05-09T18:00:50.330Z,1.4
2019-05-09T18:02:50.312Z,1.3
2019-05-09T18:04:49.674Z,1.4
2019-05-09T18:06:49.862Z,1.4
2019-05-09T18:08:49.833Z,1.4
2019-05-09T18:10:49.851Z,1.5
2019-05-09T18:12:49.864Z,1.4
2019-05-09T18:14:49.857Z,1.4
2019-05-09T18:16:49.964Z,1.3
2019-05-09T18:18:49.945Z,1.3
2019-05-09T18:20:49.946Z,1.4
2019-05-09T18:22:50.027Z,1.4
2019-05-09T18:24:49.987Z,1.6
2019-05-09T18:26:50.141Z,1.5
2019-05-09T18:28:50.177Z,1.5
2019-05-09T18:30:50.199Z,1.4
2019-05-09T18:32:50.272Z,1.5
2019-05-09T18:34:52.674Z,1.3
2019-05-09T18:36:49.880Z,1.5
2019-05-09T18:38:49.957Z,1.5
2019-05-09T18:40:49.955Z,1.5
2019-05-09T18:42:49.928Z,1.4
2019-05-09T18:44:49.915Z,1.6
2019-05-09T18:46:49.991Z,1.6
2019-05-09T18:48:50.015Z,1.6
2019-05-09T18:50:49.993Z,1.4
2019-05-09T18:52:49.988Z,1.4
2019-05-09T18:54:49.937Z,1.4
2019-05-09T18:56:50.207Z,1.3
2019-05-09T18:58:50.407Z,1.1
2019-05-09T19:00:50.416Z,1.1
2019-05-09T19:02:50.514Z,1.4
2019-05-09T19:04:50.164Z,1.4
2019-05-09T19:06:50.311Z,1.4
2019-05-09T19:08:50.301Z,1.3
2019-05-09T19:10:52.607Z,1.3
2019-05-09T19:12:49.817Z,1.2
2019-05-09T19:14:49.867Z,1.2
2019-05-09T19:16:50.126Z,1.2
2019-05-09T19:18:50.123Z,1.2
2019-05-09T19:20:50.182Z,1.2
2019-05-09T19:22:50.179Z,1.2
2019-05-09T19:24:50.246Z,1.1
2019-05-09T19:26:50.334Z,1.2
2019-05-09T19:28:50.411Z,1.1
2019-05-09T19:30:50.419Z,1.2
2019-05-09T19:32:50.427Z,1.2
2019-05-09T19:34:49.765Z,1.2
2019-05-09T19:36:49.937Z,1.3
2019-05-09T19:38:49.962Z,1.2
2019-05-09T19:40:49.946Z,1.2
2019-05-09T19:42:49.996Z,1.4
2019-05-09T19:44:50.062Z,1.4
2019-05-09T19:46:50.285Z,1.1
2019-05-09T19:48:50.363Z,1.3
2019-05-09T19:50:50.460Z,1.2
2019-05-09T19:52:50.509Z,1.2
2019-05-09T19:54:49.547Z,1.2
2019-05-09T19:56:49.641Z,1.2
2019-05-09T19:58:49.724Z,1.5
2019-05-09T20:00:49.723Z,1.5
2019-05-09T20:02:49.886Z,1.3
2019-05-09T20:04:50.120Z,1.3
2019-05-09T20:06:50.275Z,1.3
2019-05-09T20:08:50.288Z,1.4
2019-05-09T20:10:50.323Z,1.3
2019-05-09T20:12:50.387Z,1.4
2019-05-09T20:14:50.418Z,1.4
2019-05-09T20:16:49.637Z,1.3
2019-05-09T20:18:49.686Z,1.4
2019-05-09T20:20:49.765Z,1.4
2019-05-09T20:22:53.565Z,1.4
2019-05-09T20:24:49.639Z,1.6
2019-05-09T20:26:49.825Z,1.5
2019-05-09T20:28:49.899Z,1.6
2019-05-09T20:30:50.053Z,1.6
2019-05-09T20:32:50.118Z,1.6
2019-05-09T20:34:49.632Z,1.8
2019-05-09T20:36:49.903Z,1.5
2019-05-09T20:38:49.984Z,1.5
2019-05-09T20:40:50.075Z,1.6
2019-05-09T20:42:50.160Z,1.6
2019-05-09T20:44:50.222Z,1.5
2019-05-09T20:46:50.288Z,1.6
2019-05-09T20:48:50.406Z,1.6
2019-05-09T20:50:50.422Z,1.7
2019-05-09T20:52:49.619Z,1.7
2019-05-09T20:54:49.653Z,1.8
2019-05-09T20:56:50.005Z,1.8
2019-05-09T20:58:50.007Z,1.5
2019-05-09T21:00:50.016Z,1.7
2019-05-09T21:02:50.076Z,1.8
2019-05-09T21:04:49.528Z,1.8
2019-05-09T21:06:49.827Z,1.8
2019-05-09T21:08:49.762Z,1.7
2019-05-09T21:10:49.803Z,1.7
2019-05-09T21:12:49.754Z,1.8
2019-05-09T21:14:49.731Z,1.8
2019-05-09T21:16:49.829Z,1.7
2019-05-09T21:18:49.933Z,2.0
2019-05-09T21:20:49.960Z,2.0
2019-05-09T21:22:49.973Z,2.1
2019-05-09T21:24:49.950Z,1.9
2019-05-09T21:26:50.116Z,2.1
2019-05-09T21:28:50.211Z,1.7
2019-05-09T21:30:50.394Z,1.7
2019-05-09T21:32:50.423Z,1.8
2019-05-09T21:34:49.687Z,3.8
2019-05-09T21:36:49.884Z,2.3
2019-05-09T21:38:49.895Z,2.3
2019-05-09T21:40:49.965Z,1.8
2019-05-09T21:42:50.076Z,2.1
2019-05-09T21:44:50.218Z,2.1
2019-05-09T21:46:50.422Z,2.1
2019-05-09T21:48:50.460Z,1.9
2019-05-09T21:50:50.554Z,1.9
2019-05-09T21:52:49.619Z,2.1
2019-05-09T21:54:49.727Z,2.2
2019-05-09T21:56:50.005Z,1.9
2019-05-09T21:58:49.981Z,2.2
2019-05-09T22:00:50.040Z,2.2
2019-05-09T22:02:50.101Z,2.2
2019-05-09T22:04:50.506Z,2.3
2019-05-09T22:06:49.713Z,2.2
2019-05-09T22:08:49.686Z,2.2
2019-05-09T22:10:49.689Z,2.3
2019-05-09T22:12:49.616Z,2.3
2019-05-09T22:14:49.684Z,2.3
2019-05-09T22:16:49.887Z,2.3
2019-05-09T22:18:50.003Z,2.3
2019-05-09T22:20:50.009Z,2.4
2019-05-09T22:22:50.134Z,3.0
2019-05-09T22:24:50.201Z,2.6
2019-05-09T22:26:50.405Z,2.5
2019-05-09T22:28:50.394Z,2.5
2019-05-09T22:30:50.361Z,2.9
2019-05-09T22:32:50.476Z,2.8
2019-05-09T22:34:49.901Z,2.6
2019-05-09T22:36:50.017Z,2.6
2019-05-09T22:38:50.109Z,2.6
2019-05-09T22:40:50.137Z,2.7
2019-05-09T22:42:50.135Z,2.5
2019-05-09T22:44:50.187Z,2.5
2019-05-09T22:46:50.288Z,2.7
2019-05-09T22:48:50.374Z,2.7
2019-05-09T22:50:50.325Z,2.5
2019-05-09T22:52:50.389Z,2.6
2019-05-09T22:54:50.472Z,2.5
2019-05-09T22:56:49.803Z,2.5
2019-05-09T22:58:50.177Z,2.5
2019-05-09T23:00:50.249Z,2.5
2019-05-09T23:02:50.298Z,2.6
2019-05-09T23:04:49.701Z,2.5
2019-05-09T23:06:49.820Z,2.4
2019-05-09T23:08:49.822Z,2.4
2019-05-09T23:10:53.706Z,2.6
2019-05-09T23:12:49.761Z,2.6
2019-05-09T23:14:49.978Z,2.4
2019-05-09T23:16:51.021Z,2.4
2019-05-09T23:18:50.016Z,2.5
2019-05-09T23:20:50.012Z,2.6
2019-05-09T23:22:50.443Z,2.8
2019-05-09T23:24:49.529Z,2.6
2019-05-09T23:26:49.685Z,2.6
2019-05-09T23:28:49.746Z,2.6
2019-05-09T23:30:49.707Z,2.9
2019-05-09T23:32:49.765Z,2.8
2019-05-09T23:34:50.121Z,2.8
2019-05-09T23:36:50.227Z,2.7
2019-05-09T23:38:50.362Z,2.8
2019-05-09T23:40:50.338Z,2.7
2019-05-09T23:42:50.360Z,2.7
2019-05-09T23:44:50.441Z,3.1
2019-05-09T23:46:49.655Z,3.1
2019-05-09T23:48:49.684Z,2.6
2019-05-09T23:50:49.596Z,3.3
2019-05-09T23:52:49.609Z,3.1
2019-05-09T23:54:49.592Z,3.1
2019-05-09T23:56:49.817Z,3.4
2019-05-09T23:58:49.805Z,3.3
